Time;durP1;ratioP1;P1;durP2;ratioP2;P2;SDS_P1;SDS_P2;PMS_P1;PMS_P2;Temp;Humidity;BMP_temperature;BMP_pressure;BME280_temperature;BME280_humidity;BME280_pressure;Samples;Min_cycle;Max_cycle;Signal;HPM_P1;HPM_P2
2021/08/21 00:00:43;;;;;;;5.10;4.60;;;;;22.90;100757.00;;;;2072296;28;20220;-68
2021/08/21 00:01:44;;;;;;;5.57;5.07;;;;;22.90;100748.00;;;;2072640;28;20210;-68
2021/08/21 00:02:44;;;;;;;4.97;4.50;;;;;22.90;100755.00;;;;2072619;28;20214;-68
2021/08/21 00:03:44;;;;;;;5.50;4.90;;;;;22.90;100749.00;;;;2072387;28;20210;-68
2021/08/21 00:04:46;;;;;;;4.53;4.13;;;;;22.90;100752.00;;;;2072431;28;20681;-68
2021/08/21 00:05:46;;;;;;;4.70;4.30;;;;;22.90;100754.00;;;;2072586;28;20206;-68
2021/08/21 00:06:47;;;;;;;4.80;4.40;;;;;22.90;100742.00;;;;2072030;28;20342;-68
2021/08/21 00:07:47;;;;;;;4.87;4.47;;;;;23.00;100704.00;;;;2062081;28;20681;-69
2021/08/21 00:08:47;;;;;;;4.83;4.43;;;;;22.90;100751.00;;;;2067304;28;20625;-68
2021/08/21 00:09:48;;;;;;;4.73;4.27;;;;;22.90;100748.00;;;;2070794;28;20226;-68
2021/08/21 00:10:48;;;;;;;5.13;4.73;;;;;22.90;100752.00;;;;2072653;28;20306;-68
2021/08/21 00:11:48;;;;;;;4.40;4.00;;;;;22.90;100747.00;;;;2071945;28;20693;-68
2021/08/21 00:12:49;;;;;;;4.50;4.10;;;;;22.90;100742.00;;;;2070364;28;20500;-69
2021/08/21 00:13:49;;;;;;;4.10;3.80;;;;;22.90;100745.00;;;;2071844;28;20669;-68
2021/08/21 00:14:49;;;;;;;4.23;3.93;;;;;22.90;100742.00;;;;2071877;28;20229;-68
2021/08/21 00:15:50;;;;;;;4.10;3.70;;;;;23.00;100741.00;;;;2072485;28;20224;-68
2021/08/21 00:16:50;;;;;;;4.23;3.83;;;;;22.90;100743.00;;;;2071514;28;20771;-68
2021/08/21 00:17:51;;;;;;;4.10;3.70;;;;;22.90;100718.00;;;;2071147;28;20614;-68
2021/08/21 00:18:51;;;;;;;4.43;4.03;;;;;22.90;100743.00;;;;2071809;28;20854;-68
2021/08/21 00:19:51;;;;;;;3.70;3.40;;;;;22.90;100740.00;;;;2071811;28;20608;-69
2021/08/21 00:20:52;;;;;;;3.83;3.53;;;;;22.90;100742.00;;;;2072550;28;20210;-68
2021/08/21 00:21:52;;;;;;;4.73;4.33;;;;;23.00;100739.00;;;;2071742;28;20408;-68
2021/08/21 00:22:53;;;;;;;5.23;4.40;;;;;22.90;100739.00;;;;2071640;28;20685;-68
2021/08/21 00:23:53;;;;;;;4.00;3.60;;;;;22.90;100742.00;;;;2072307;28;20214;-68
2021/08/21 00:24:53;;;;;;;4.20;3.80;;;;;22.90;100743.00;;;;2072567;28;20246;-68
2021/08/21 00:25:54;;;;;;;3.73;3.43;;;;;22.90;100739.00;;;;2072445;28;20719;-68
2021/08/21 00:26:54;;;;;;;4.07;3.67;;;;;22.90;100739.00;;;;2072549;28;20669;-68
2021/08/21 00:27:54;;;;;;;4.10;3.70;;;;;22.90;100739.00;;;;2072451;28;20216;-69
2021/08/21 00:28:55;;;;;;;4.60;4.00;;;;;22.90;100736.00;;;;2072354;28;20232;-69
2021/08/21 00:29:55;;;;;;;4.13;3.83;;;;;22.90;100739.00;;;;2072355;28;20221;-68
2021/08/21 00:30:55;;;;;;;3.53;3.23;;;;;22.90;100735.00;;;;2072108;28;20276;-68
2021/08/21 00:31:56;;;;;;;4.20;3.80;;;;;22.90;100744.00;;;;2071820;28;20210;-68
2021/08/21 00:32:56;;;;;;;4.10;3.70;;;;;22.90;100737.00;;;;2071833;28;20237;-68
2021/08/21 00:33:56;;;;;;;3.80;3.40;;;;;22.90;100731.00;;;;2072416;28;20256;-68
2021/08/21 00:34:57;;;;;;;3.97;3.50;;;;;22.90;100744.00;;;;2071471;28;20285;-68
2021/08/21 00:35:57;;;;;;;4.70;3.77;;;;;22.90;100744.00;;;;2071475;28;20456;-68
2021/08/21 00:36:57;;;;;;;3.60;3.30;;;;;22.90;100744.00;;;;2071729;28;20213;-68
2021/08/21 00:37:58;;;;;;;4.13;3.83;;;;;22.90;100738.00;;;;2071739;28;20215;-68
2021/08/21 00:38:58;;;;;;;3.73;3.43;;;;;22.90;100739.00;;;;2071644;28;20337;-68
2021/08/21 00:39:58;;;;;;;3.63;3.33;;;;;22.90;100737.00;;;;2071699;28;20703;-68
2021/08/21 00:40:59;;;;;;;4.13;3.70;;;;;22.90;100738.00;;;;2071083;28;20695;-68
2021/08/21 00:41:59;;;;;;;4.10;3.70;;;;;22.90;100746.00;;;;2071711;28;20214;-68
2021/08/21 00:42:59;;;;;;;3.90;3.60;;;;;22.90;100745.00;;;;2072285;28;20789;-68
2021/08/21 00:44:00;;;;;;;4.10;3.70;;;;;22.90;100743.00;;;;2072166;28;20206;-69
2021/08/21 00:45:00;;;;;;;3.47;3.20;;;;;22.90;100748.00;;;;2072389;28;20215;-68
2021/08/21 00:46:00;;;;;;;3.83;3.43;;;;;22.90;100743.00;;;;2072247;28;20298;-68
2021/08/21 00:47:04;;;;;;;3.30;3.00;;;;;22.90;100743.00;;;;2072389;28;20285;-68
2021/08/21 00:48:04;;;;;;;4.00;3.65;;;;;22.90;100742.00;;;;2072156;28;20700;-68
2021/08/21 00:49:05;;;;;;;3.70;3.40;;;;;22.90;100743.00;;;;2072092;28;20209;-68
2021/08/21 00:50:06;;;;;;;3.80;3.50;;;;;22.90;100746.00;;;;2072242;28;20210;-68
2021/08/21 00:51:06;;;;;;;3.22;3.03;;;;;22.90;100741.00;;;;2072351;28;20677;-68
2021/08/21 00:52:09;;;;;;;3.70;3.40;;;;;22.90;100744.00;;;;2072152;28;20198;-68
2021/08/21 00:53:09;;;;;;;3.10;2.85;;;;;22.90;100744.00;;;;2072231;28;20214;-68
2021/08/21 00:54:10;;;;;;;4.00;3.10;;;;;22.90;100743.00;;;;2072152;28;20260;-68
2021/08/21 00:55:10;;;;;;;3.33;3.03;;;;;22.90;100740.00;;;;2071765;28;20215;-68
2021/08/21 00:56:10;;;;;;;3.00;2.80;;;;;22.90;100745.00;;;;2071498;28;20221;-68
2021/08/21 00:57:12;;;;;;;3.90;3.50;;;;;22.90;100746.00;;;;2071089;28;20218;-68
2021/08/21 00:58:12;;;;;;;3.42;3.17;;;;;22.90;100746.00;;;;2062767;28;20203;-68
2021/08/21 00:59:12;;;;;;;2.90;2.70;;;;;22.90;100739.00;;;;2066548;28;20234;-68
2021/08/21 01:00:13;;;;;;;3.57;3.27;;;;;22.90;100738.00;;;;2071476;28;20219;-69
2021/08/21 01:01:13;;;;;;;3.60;3.30;;;;;22.90;100738.00;;;;2068658;28;20255;-68
2021/08/21 01:02:14;;;;;;;3.47;3.17;;;;;22.90;100746.00;;;;2051193;28;20212;-68
2021/08/21 01:03:15;;;;;;;3.50;2.90;;;;;22.90;100740.00;;;;2054823;28;20223;-68
2021/08/21 01:04:17;;;;;;;3.80;3.20;;;;;22.90;100738.00;;;;2063147;28;20469;-68
2021/08/21 01:05:19;;;;;;;3.47;3.17;;;;;22.90;100735.00;;;;2080509;28;20220;-68
2021/08/21 01:06:19;;;;;;;3.15;2.95;;;;;22.90;100736.00;;;;2077931;28;20247;-69
2021/08/21 01:07:22;;;;;;;3.20;3.00;;;;;22.90;100743.00;;;;2064877;28;20748;-68
2021/08/21 01:08:22;;;;;;;3.60;3.05;;;;;22.90;100738.00;;;;2071449;28;20723;-68
2021/08/21 01:09:22;;;;;;;3.33;3.00;;;;;22.90;100743.00;;;;2071936;28;20226;-68
2021/08/21 01:10:23;;;;;;;3.70;3.40;;;;;22.80;100739.00;;;;2072080;28;20222;-68
2021/08/21 01:11:23;;;;;;;3.50;3.20;;;;;22.80;100741.00;;;;2072160;28;20214;-68
2021/08/21 01:12:23;;;;;;;3.63;3.07;;;;;22.80;100740.00;;;;2071511;28;20206;-68
2021/08/21 01:13:24;;;;;;;3.17;2.97;;;;;22.80;100738.00;;;;2071460;28;20230;-68
2021/08/21 01:14:27;;;;;;;4.40;3.33;;;;;22.90;100739.00;;;;2069717;28;20248;-68
2021/08/21 01:15:27;;;;;;;3.10;2.90;;;;;22.80;100736.00;;;;2067075;28;20246;-68
2021/08/21 01:16:27;;;;;;;3.27;3.07;;;;;22.70;100734.00;;;;2061803;28;20215;-68
2021/08/21 01:17:28;;;;;;;3.83;3.43;;;;;22.80;100737.00;;;;2063360;28;20226;-68
2021/08/21 01:18:28;;;;;;;2.83;2.60;;;;;22.90;100733.00;;;;2072087;28;20210;-68
2021/08/21 01:19:30;;;;;;;3.33;2.80;;;;;22.80;100734.00;;;;2059300;28;20247;-68
2021/08/21 01:20:31;;;;;;;3.85;2.78;;;;;22.90;100731.00;;;;2050612;28;20232;-68
2021/08/21 01:21:31;;;;;;;3.43;3.13;;;;;22.90;100739.00;;;;2067334;28;20593;-68
2021/08/21 01:22:32;;;;;;;3.30;3.00;;;;;22.90;100741.00;;;;2063654;28;20215;-68
2021/08/21 01:23:32;;;;;;;3.03;2.83;;;;;22.80;100736.00;;;;2071939;28;20676;-68
2021/08/21 01:24:34;;;;;;;2.90;2.70;;;;;22.80;100737.00;;;;2071944;28;20214;-67
2021/08/21 01:25:35;;;;;;;3.58;2.97;;;;;22.90;100738.00;;;;2072004;28;20693;-69
2021/08/21 01:26:35;;;;;;;3.10;2.77;;;;;22.90;100737.00;;;;2071903;28;20210;-68
2021/08/21 01:27:35;;;;;;;3.13;2.83;;;;;22.80;100740.00;;;;2071343;28;20221;-68
2021/08/21 01:28:36;;;;;;;3.60;3.30;;;;;22.80;100735.00;;;;2071348;28;20301;-68
2021/08/21 01:29:38;;;;;;;2.67;2.47;;;;;22.80;100736.00;;;;2069643;28;20206;-68
2021/08/21 01:30:38;;;;;;;2.95;2.75;;;;;22.80;100735.00;;;;2066932;28;20210;-68
2021/08/21 01:31:39;;;;;;;3.37;3.17;;;;;22.80;100738.00;;;;2069281;28;20924;-68
2021/08/21 01:32:39;;;;;;;2.90;2.70;;;;;22.80;100731.00;;;;2071364;28;20246;-68
2021/08/21 01:33:39;;;;;;;3.17;2.87;;;;;22.80;100735.00;;;;2071941;28;20225;-67
2021/08/21 01:34:40;;;;;;;3.57;3.27;;;;;22.80;100741.00;;;;2071816;28;20268;-67
2021/08/21 01:35:40;;;;;;;4.53;3.17;;;;;22.80;100739.00;;;;2071077;28;20727;-68
2021/08/21 01:36:42;;;;;;;3.43;2.60;;;;;22.80;100741.00;;;;2071026;28;20280;-68
2021/08/21 01:37:42;;;;;;;3.95;3.03;;;;;22.80;100741.00;;;;2061590;28;20767;-68
2021/08/21 01:38:56;;;;;;;2.63;2.43;;;;;22.80;100746.00;;;;2059001;28;20215;-69
2021/08/21 01:39:56;;;;;;;2.88;2.65;;;;;22.80;100737.00;;;;2071006;28;20931;-68
2021/08/21 01:40:56;;;;;;;3.27;3.00;;;;;22.80;100675.00;;;;2071304;28;20249;-69
2021/08/21 01:41:57;;;;;;;2.70;2.50;;;;;22.80;100732.00;;;;2071963;28;20579;-68
2021/08/21 01:42:57;;;;;;;3.03;2.83;;;;;22.80;100734.00;;;;2070956;28;20562;-68
2021/08/21 01:43:57;;;;;;;2.57;2.37;;;;;22.80;100741.00;;;;2070807;28;21070;-68
2021/08/21 01:44:58;;;;;;;5.13;2.77;;;;;22.80;100738.00;;;;2071498;28;20293;-68
2021/08/21 01:45:58;;;;;;;3.07;2.87;;;;;22.80;100741.00;;;;2071300;28;20213;-69
2021/08/21 01:46:58;;;;;;;3.10;2.90;;;;;22.80;100740.00;;;;2071485;28;20248;-68
2021/08/21 01:47:59;;;;;;;2.90;2.70;;;;;22.80;100743.00;;;;2071304;28;20684;-68
2021/08/21 01:49:03;;;;;;;4.17;2.70;;;;;22.80;100736.00;;;;2071101;28;20222;-68
2021/08/21 01:50:06;;;;;;;2.55;2.35;;;;;22.80;100736.00;;;;2071251;28;20250;-68
2021/08/21 01:51:07;;;;;;;3.00;2.78;;;;;22.80;100742.00;;;;2063244;28;20220;-68
2021/08/21 01:52:07;;;;;;;3.20;2.93;;;;;22.80;100736.00;;;;2069392;28;20548;-69
2021/08/21 01:53:12;;;;;;;3.13;2.90;;;;;22.80;100745.00;;;;2070504;28;20225;-68
2021/08/21 01:54:20;;;;;;;3.20;2.95;;;;;22.80;100740.00;;;;2070500;28;20252;-68
2021/08/21 01:55:21;;;;;;;2.88;2.40;;;;;22.80;100740.00;;;;2070596;28;20221;-68
2021/08/21 01:56:23;;;;;;;2.80;2.60;;;;;22.80;100738.00;;;;2071528;28;20276;-68
2021/08/21 01:57:23;;;;;;;2.88;2.67;;;;;22.80;100738.00;;;;2071829;28;20222;-69
2021/08/21 01:58:23;;;;;;;2.70;2.50;;;;;22.80;100737.00;;;;2071354;28;20297;-69
2021/08/21 01:59:24;;;;;;;2.93;2.70;;;;;22.80;100742.00;;;;2071287;28;20211;-68
2021/08/21 02:00:28;;;;;;;4.53;2.73;;;;;22.80;100737.00;;;;2071723;28;20229;-68
2021/08/21 02:01:28;;;;;;;2.63;2.42;;;;;22.80;100739.00;;;;2071703;28;20441;-68
2021/08/21 02:02:28;;;;;;;2.80;2.60;;;;;22.80;100741.00;;;;2071847;28;20214;-68
2021/08/21 02:03:30;;;;;;;3.03;2.70;;;;;22.80;100745.00;;;;2071040;28;20214;-68
2021/08/21 02:04:30;;;;;;;2.90;2.70;;;;;22.80;100740.00;;;;2062810;28;20211;-68
2021/08/21 02:05:31;;;;;;;3.07;2.77;;;;;22.80;100740.00;;;;2062422;28;20221;-68
2021/08/21 02:06:31;;;;;;;2.60;2.40;;;;;22.80;100737.00;;;;2070927;28;20217;-68
2021/08/21 02:07:31;;;;;;;2.87;2.53;;;;;22.80;100742.00;;;;2071560;28;20226;-68
2021/08/21 02:08:32;;;;;;;3.30;3.10;;;;;22.80;100743.00;;;;2070525;28;20206;-68
2021/08/21 02:09:34;;;;;;;2.80;2.60;;;;;22.70;100738.00;;;;2071416;28;20585;-68
2021/08/21 02:10:34;;;;;;;3.10;2.75;;;;;22.70;100738.00;;;;2071619;28;20705;-69
2021/08/21 02:11:34;;;;;;;3.03;2.70;;;;;22.70;100740.00;;;;2071695;28;20318;-68
2021/08/21 02:12:35;;;;;;;2.43;2.23;;;;;22.70;100737.00;;;;2068723;28;20214;-68
2021/08/21 02:13:35;;;;;;;2.40;2.20;;;;;22.70;100737.00;;;;2071627;28;20221;-68
2021/08/21 02:14:35;;;;;;;2.60;2.10;;;;;22.80;100735.00;;;;2071624;28;20222;-68
2021/08/21 02:15:36;;;;;;;2.70;2.50;;;;;22.80;100740.00;;;;2071673;28;20237;-68
2021/08/21 02:16:36;;;;;;;2.80;2.60;;;;;22.80;100732.00;;;;2071365;28;20627;-68
2021/08/21 02:17:36;;;;;;;2.53;2.33;;;;;22.70;100734.00;;;;2071361;28;20237;-68
2021/08/21 02:18:37;;;;;;;3.17;2.87;;;;;22.70;100738.00;;;;2071249;28;20214;-68
2021/08/21 02:19:37;;;;;;;3.63;2.57;;;;;22.70;100722.00;;;;2070719;28;20230;-68
2021/08/21 02:20:38;;;;;;;3.30;3.00;;;;;22.70;100736.00;;;;2071191;28;20397;-68
2021/08/21 02:21:38;;;;;;;2.77;2.57;;;;;22.70;100731.00;;;;2071490;28;20214;-68
2021/08/21 02:22:39;;;;;;;2.97;2.77;;;;;22.70;100732.00;;;;2071603;28;20222;-68
2021/08/21 02:23:40;;;;;;;2.53;2.33;;;;;22.70;100740.00;;;;2070910;28;20226;-67
2021/08/21 02:24:42;;;;;;;2.73;2.53;;;;;22.80;100733.00;;;;2070739;28;20253;-67
2021/08/21 02:25:42;;;;;;;2.97;2.40;;;;;22.80;100736.00;;;;2071332;28;20237;-68
2021/08/21 02:26:43;;;;;;;2.80;2.50;;;;;22.80;100735.00;;;;2071512;28;20216;-68
2021/08/21 02:27:55;;;;;;;4.10;2.60;;;;;22.80;100743.00;;;;2071582;28;20217;-68
2021/08/21 02:28:55;;;;;;;3.22;2.90;;;;;22.80;100738.00;;;;2071494;28;20457;-67
2021/08/21 02:29:55;;;;;;;2.87;2.57;;;;;22.80;100726.00;;;;2070745;28;20736;-68
2021/08/21 02:30:56;;;;;;;3.03;2.50;;;;;22.80;100737.00;;;;2069838;28;20744;-68
2021/08/21 02:31:56;;;;;;;2.93;2.73;;;;;22.80;100678.00;;;;2070792;28;20719;-73
2021/08/21 02:32:56;;;;;;;2.87;2.67;;;;;22.80;100727.00;;;;2070336;28;20660;-69
2021/08/21 02:33:57;;;;;;;3.60;3.10;;;;;22.80;100727.00;;;;2070357;28;20260;-66
2021/08/21 02:34:57;;;;;;;2.60;2.40;;;;;22.80;100733.00;;;;2071105;28;20210;-68
2021/08/21 02:35:58;;;;;;;3.00;2.60;;;;;22.80;100728.00;;;;2070862;28;20210;-68
2021/08/21 02:36:59;;;;;;;2.60;2.40;;;;;22.80;100730.00;;;;2070941;28;20242;-68
2021/08/21 02:37:59;;;;;;;2.63;2.43;;;;;22.90;100725.00;;;;2071188;28;20214;-69
2021/08/21 02:39:00;;;;;;;2.77;2.57;;;;;22.90;100720.00;;;;2070858;28;20222;-69
2021/08/21 02:40:01;;;;;;;2.83;2.63;;;;;22.90;100720.00;;;;2070877;28;20221;-69
2021/08/21 02:41:01;;;;;;;2.60;2.30;;;;;22.90;100715.00;;;;2071048;28;20220;-70
2021/08/21 02:42:02;;;;;;;2.57;2.37;;;;;22.90;100725.00;;;;2070392;28;20632;-69
2021/08/21 02:43:02;;;;;;;2.50;2.30;;;;;22.90;100722.00;;;;2070140;28;20631;-69
2021/08/21 02:44:03;;;;;;;4.47;2.73;;;;;22.90;100718.00;;;;2071297;28;20242;-70
2021/08/21 02:45:03;;;;;;;2.73;2.37;;;;;23.00;100721.00;;;;2070370;28;20214;-69
2021/08/21 02:46:04;;;;;;;3.20;2.47;;;;;23.00;100726.00;;;;2070834;28;20224;-69
2021/08/21 02:47:04;;;;;;;2.30;2.10;;;;;23.00;100725.00;;;;2070871;28;20309;-69
2021/08/21 02:48:05;;;;;;;2.93;2.40;;;;;23.00;100720.00;;;;2070507;28;20218;-69
2021/08/21 02:49:05;;;;;;;3.40;2.30;;;;;23.00;100723.00;;;;2070874;28;20207;-69
2021/08/21 02:50:06;;;;;;;3.67;2.70;;;;;23.00;100718.00;;;;2070957;28;20201;-69
2021/08/21 02:51:07;;;;;;;2.00;1.90;;;;;23.00;100723.00;;;;2061311;28;20219;-70
2021/08/21 02:52:07;;;;;;;3.03;2.40;;;;;23.00;100714.00;;;;2070354;28;20536;-69
2021/08/21 02:53:07;;;;;;;3.20;2.27;;;;;22.90;100721.00;;;;2070507;28;20321;-69
2021/08/21 02:54:08;;;;;;;2.70;2.47;;;;;22.90;100714.00;;;;2070265;28;20217;-69
2021/08/21 02:55:08;;;;;;;3.00;2.50;;;;;23.00;100722.00;;;;2070396;28;20224;-69
2021/08/21 02:56:09;;;;;;;3.17;2.67;;;;;23.00;100720.00;;;;2070604;28;20245;-69
2021/08/21 02:57:09;;;;;;;4.30;2.50;;;;;22.90;100711.00;;;;2069832;28;20325;-69
2021/08/21 02:58:10;;;;;;;3.67;2.40;;;;;22.90;100731.00;;;;2071423;28;20309;-69
2021/08/21 02:59:10;;;;;;;2.73;2.53;;;;;23.00;100708.00;;;;2071117;28;20217;-69
2021/08/21 03:00:10;;;;;;;2.90;2.60;;;;;23.00;100713.00;;;;2071444;28;20218;-69
2021/08/21 03:01:11;;;;;;;2.37;2.00;;;;;23.00;100719.00;;;;2069325;28;20236;-69
2021/08/21 03:02:11;;;;;;;4.00;2.23;;;;;22.90;100717.00;;;;2070880;28;20210;-69
2021/08/21 03:03:11;;;;;;;3.10;2.70;;;;;22.90;100723.00;;;;2071205;28;20210;-69
2021/08/21 03:04:12;;;;;;;2.63;2.43;;;;;22.90;100718.00;;;;2071975;28;20214;-69
2021/08/21 03:05:12;;;;;;;2.60;2.40;;;;;22.90;100718.00;;;;2072974;28;20635;-69
2021/08/21 03:06:13;;;;;;;2.87;2.67;;;;;22.90;100718.00;;;;2072994;28;20206;-69
2021/08/21 03:07:13;;;;;;;2.43;2.20;;;;;22.90;100715.00;;;;2073054;28;20234;-69
2021/08/21 03:08:13;;;;;;;2.40;2.10;;;;;22.90;100715.00;;;;2073199;28;20271;-69
2021/08/21 03:09:14;;;;;;;2.80;2.60;;;;;22.90;100720.00;;;;2072186;28;20217;-70
2021/08/21 03:10:14;;;;;;;5.27;2.47;;;;;22.90;100718.00;;;;2072298;28;20210;-69
2021/08/21 03:11:14;;;;;;;2.70;2.50;;;;;22.90;100725.00;;;;2072786;28;20230;-70
2021/08/21 03:12:15;;;;;;;2.57;2.37;;;;;22.90;100711.00;;;;2071476;28;20693;-70
2021/08/21 03:13:15;;;;;;;2.53;2.30;;;;;22.90;100718.00;;;;2069182;28;20226;-70
2021/08/21 03:14:15;;;;;;;2.50;2.27;;;;;22.90;100715.00;;;;2072693;28;20222;-70
2021/08/21 03:15:16;;;;;;;3.30;2.37;;;;;22.90;100723.00;;;;2072304;28;20222;-70
2021/08/21 03:16:16;;;;;;;2.90;2.40;;;;;22.90;100721.00;;;;2071831;28;20221;-69
2021/08/21 03:17:17;;;;;;;2.80;2.60;;;;;22.90;100719.00;;;;2072149;28;20222;-70
2021/08/21 03:18:17;;;;;;;2.70;2.50;;;;;22.90;100719.00;;;;2072338;28;20225;-70
2021/08/21 03:19:17;;;;;;;3.37;3.07;;;;;22.90;100714.00;;;;2072612;28;20222;-70
2021/08/21 03:20:18;;;;;;;3.47;3.17;;;;;22.90;100710.00;;;;2072890;28;20945;-70
2021/08/21 03:21:18;;;;;;;4.00;3.53;;;;;22.90;100713.00;;;;2072419;28;20707;-70
2021/08/21 03:22:18;;;;;;;5.53;4.50;;;;;22.90;100724.00;;;;2072264;28;20218;-70
2021/08/21 03:23:19;;;;;;;4.37;4.07;;;;;22.90;100722.00;;;;2072152;28;20683;-70
2021/08/21 03:24:19;;;;;;;7.27;6.67;;;;;22.90;100717.00;;;;2072945;28;20222;-70
2021/08/21 03:25:19;;;;;;;8.00;7.20;;;;;22.90;100723.00;;;;2072794;28;20218;-70
2021/08/21 03:26:20;;;;;;;9.00;8.10;;;;;22.90;100720.00;;;;2072969;28;20214;-68
2021/08/21 03:27:20;;;;;;;8.20;7.40;;;;;22.90;100726.00;;;;2072990;28;20253;-68
2021/08/21 03:28:20;;;;;;;11.80;10.50;;;;;22.90;100722.00;;;;2072735;28;20271;-68
2021/08/21 03:29:21;;;;;;;14.90;12.70;;;;;22.90;100725.00;;;;2072612;28;20214;-68
2021/08/21 03:30:21;;;;;;;14.63;12.97;;;;;22.90;100718.00;;;;2072019;28;20715;-69
2021/08/21 03:31:21;;;;;;;16.10;13.10;;;;;22.90;100720.00;;;;2071386;28;20766;-69
2021/08/21 03:32:22;;;;;;;12.87;11.57;;;;;22.90;100720.00;;;;2072773;28;20217;-68
2021/08/21 03:33:22;;;;;;;17.80;15.93;;;;;22.90;100723.00;;;;2072668;28;20238;-69
2021/08/21 03:34:24;;;;;;;19.03;15.70;;;;;22.90;100714.00;;;;2072092;28;20260;-69
2021/08/21 03:35:25;;;;;;;22.52;18.15;;;;;22.90;100721.00;;;;2070252;28;20226;-70
2021/08/21 03:36:26;;;;;;;19.77;17.60;;;;;22.90;100724.00;;;;2072639;28;20309;-70
2021/08/21 03:37:26;;;;;;;21.90;19.20;;;;;22.90;100721.00;;;;2072769;28;20218;-69
2021/08/21 03:38:27;;;;;;;23.90;20.33;;;;;22.90;100719.00;;;;2072811;28;20245;-70
2021/08/21 03:39:27;;;;;;;20.90;18.80;;;;;22.90;100724.00;;;;2072733;28;20218;-70
2021/08/21 03:40:28;;;;;;;21.20;18.93;;;;;22.90;100725.00;;;;2072520;28;20226;-69
2021/08/21 03:41:28;;;;;;;21.57;19.27;;;;;22.90;100720.00;;;;2072830;28;20253;-69
2021/08/21 03:42:28;;;;;;;22.13;19.73;;;;;22.90;100725.00;;;;2072069;28;20221;-70
2021/08/21 03:43:29;;;;;;;24.03;20.70;;;;;22.90;100722.00;;;;2072808;28;20229;-70
2021/08/21 03:44:29;;;;;;;23.47;21.03;;;;;22.90;100715.00;;;;2072759;28;20218;-69
2021/08/21 03:45:29;;;;;;;23.13;20.50;;;;;22.90;100714.00;;;;2072583;28;20269;-69
2021/08/21 03:46:30;;;;;;;23.53;21.03;;;;;22.90;100714.00;;;;2072615;28;20569;-70
2021/08/21 03:47:30;;;;;;;23.47;20.23;;;;;22.90;100717.00;;;;2072814;28;20600;-69
2021/08/21 03:48:30;;;;;;;22.67;19.50;;;;;22.90;100713.00;;;;2072798;28;20213;-69
2021/08/21 03:49:31;;;;;;;21.67;19.37;;;;;22.90;100712.00;;;;2072539;28;20214;-70
2021/08/21 03:50:31;;;;;;;20.77;18.60;;;;;22.90;100728.00;;;;2072582;28;20287;-69
2021/08/21 03:51:32;;;;;;;20.90;17.87;;;;;22.90;100725.00;;;;2071283;28;20297;-70
2021/08/21 03:52:32;;;;;;;21.07;18.13;;;;;22.90;100721.00;;;;2071860;28;20226;-69
2021/08/21 03:53:32;;;;;;;19.60;17.50;;;;;22.90;100717.00;;;;2072072;28;20724;-69
2021/08/21 03:54:33;;;;;;;21.23;18.20;;;;;22.90;100718.00;;;;2072592;28;20780;-68
2021/08/21 03:55:33;;;;;;;17.70;12.70;;;;;22.90;100715.00;;;;2072683;28;20702;-68
2021/08/21 03:56:33;;;;;;;22.63;11.50;;;;;22.90;100710.00;;;;2072633;28;20627;-68
2021/08/21 03:57:34;;;;;;;17.33;10.30;;;;;22.80;100704.00;;;;2072742;28;20624;-69
2021/08/21 03:58:34;;;;;;;14.50;9.37;;;;;22.70;100721.00;;;;2072638;28;20623;-69
2021/08/21 03:59:34;;;;;;;10.10;8.57;;;;;22.70;100721.00;;;;2072350;28;20284;-69
2021/08/21 04:00:35;;;;;;;11.63;8.20;;;;;22.60;100722.00;;;;2072402;28;20206;-68
2021/08/21 04:01:35;;;;;;;9.73;8.37;;;;;22.60;100716.00;;;;2072620;28;20210;-69
2021/08/21 04:02:35;;;;;;;7.47;6.67;;;;;22.60;100721.00;;;;2072794;28;20293;-69
2021/08/21 04:03:36;;;;;;;9.10;7.07;;;;;22.50;100720.00;;;;2072700;28;20689;-67
2021/08/21 04:04:36;;;;;;;7.23;6.53;;;;;22.50;100721.00;;;;2072361;28;20584;-68
2021/08/21 04:05:36;;;;;;;9.43;6.33;;;;;22.50;100713.00;;;;2072545;28;20202;-68
2021/08/21 04:06:40;;;;;;;7.60;6.00;;;;;22.40;100728.00;;;;2072527;28;20202;-68
2021/08/21 04:07:40;;;;;;;7.03;6.10;;;;;22.40;100725.00;;;;2071031;28;20214;-69
2021/08/21 04:08:41;;;;;;;6.37;5.77;;;;;22.40;100721.00;;;;2071696;28;20688;-68
2021/08/21 04:09:41;;;;;;;6.37;5.10;;;;;22.40;100723.00;;;;2072398;28;20206;-69
2021/08/21 04:10:41;;;;;;;5.60;4.80;;;;;22.30;100715.00;;;;2072550;28;20253;-69
2021/08/21 04:11:42;;;;;;;5.63;5.13;;;;;22.40;100719.00;;;;2072537;28;20206;-69
2021/08/21 04:12:43;;;;;;;5.67;4.93;;;;;22.30;100716.00;;;;2072573;28;20205;-69
2021/08/21 04:13:43;;;;;;;4.90;4.50;;;;;22.30;100711.00;;;;2068715;28;20238;-68
2021/08/21 04:14:44;;;;;;;5.70;4.90;;;;;22.20;100714.00;;;;2072649;28;20207;-69
2021/08/21 04:15:45;;;;;;;5.85;4.95;;;;;22.20;100711.00;;;;2070946;28;20305;-69
2021/08/21 04:16:45;;;;;;;5.30;4.43;;;;;22.30;100716.00;;;;2071373;28;20617;-68
2021/08/21 04:17:45;;;;;;;4.63;3.97;;;;;22.30;100721.00;;;;2072378;28;20222;-69
2021/08/21 04:18:46;;;;;;;4.20;3.77;;;;;22.20;100721.00;;;;2072401;28;20323;-68
2021/08/21 04:19:46;;;;;;;4.67;4.27;;;;;22.20;100721.00;;;;2072362;28;20240;-68
2021/08/21 04:20:46;;;;;;;5.27;4.37;;;;;22.20;100719.00;;;;2072553;28;20206;-69
2021/08/21 04:21:47;;;;;;;6.67;4.50;;;;;22.20;100722.00;;;;2072451;28;20268;-69
2021/08/21 04:22:47;;;;;;;4.20;3.80;;;;;22.10;100717.00;;;;2072359;28;20561;-68
2021/08/21 04:23:47;;;;;;;4.17;3.63;;;;;22.10;100719.00;;;;2071753;28;21231;-69
2021/08/21 04:24:48;;;;;;;4.30;3.73;;;;;22.20;100717.00;;;;2071676;28;20363;-69
2021/08/21 04:25:48;;;;;;;4.60;4.20;;;;;22.20;100715.00;;;;2072412;28;20218;-68
2021/08/21 04:26:48;;;;;;;4.30;3.90;;;;;22.20;100720.00;;;;2072460;28;20222;-68
2021/08/21 04:27:50;;;;;;;4.37;3.40;;;;;22.20;100727.00;;;;2072519;28;20221;-69
2021/08/21 04:28:50;;;;;;;4.00;3.50;;;;;22.10;100725.00;;;;2071652;28;20719;-68
2021/08/21 04:29:51;;;;;;;3.87;3.43;;;;;22.10;100717.00;;;;2071469;28;20301;-68
2021/08/21 04:30:51;;;;;;;3.70;3.40;;;;;22.10;100718.00;;;;2071581;28;20222;-68
2021/08/21 04:31:51;;;;;;;4.20;3.80;;;;;22.10;100716.00;;;;2071926;28;20224;-68
2021/08/21 04:32:52;;;;;;;3.57;3.27;;;;;22.10;100723.00;;;;2071869;28;20218;-69
2021/08/21 04:33:52;;;;;;;3.40;3.10;;;;;22.20;100725.00;;;;2071972;28;20264;-68
2021/08/21 04:34:52;;;;;;;4.00;3.60;;;;;22.20;100729.00;;;;2072204;28;20319;-68
2021/08/21 04:35:53;;;;;;;4.07;3.67;;;;;22.20;100714.00;;;;2071039;28;20265;-68
2021/08/21 04:36:53;;;;;;;4.37;3.60;;;;;22.10;100718.00;;;;2063330;28;20612;-69
2021/08/21 04:37:54;;;;;;;3.30;3.00;;;;;22.10;100717.00;;;;2068129;28;20242;-68
2021/08/21 04:38:54;;;;;;;3.57;3.27;;;;;22.10;100723.00;;;;2071734;28;20218;-68
2021/08/21 04:39:55;;;;;;;3.70;3.40;;;;;22.10;100725.00;;;;2072172;28;20226;-69
2021/08/21 04:40:55;;;;;;;3.17;2.97;;;;;22.10;100722.00;;;;2072423;28;20233;-68
2021/08/21 04:41:55;;;;;;;3.60;3.30;;;;;22.00;100727.00;;;;2072104;28;20214;-69
2021/08/21 04:42:56;;;;;;;5.10;2.93;;;;;22.00;100720.00;;;;2071749;28;20222;-68
2021/08/21 04:43:56;;;;;;;3.43;3.13;;;;;22.00;100724.00;;;;2071460;28;20681;-69
2021/08/21 04:44:59;;;;;;;3.90;3.07;;;;;22.00;100719.00;;;;2072326;28;20218;-68
2021/08/21 04:46:00;;;;;;;3.45;3.13;;;;;22.00;100715.00;;;;2072031;28;20218;-68
2021/08/21 04:47:00;;;;;;;4.40;2.80;;;;;22.00;100725.00;;;;2072302;28;20214;-68
2021/08/21 04:48:00;;;;;;;3.23;2.93;;;;;22.00;100722.00;;;;2072285;28;20218;-69
2021/08/21 04:49:01;;;;;;;4.40;3.50;;;;;22.00;100727.00;;;;2072070;28;20632;-68
2021/08/21 04:50:03;;;;;;;3.27;3.03;;;;;22.00;100726.00;;;;2072197;28;20239;-68
2021/08/21 04:51:03;;;;;;;3.03;2.83;;;;;21.90;100729.00;;;;2071791;28;20241;-68
2021/08/21 04:52:04;;;;;;;3.77;3.20;;;;;21.90;100719.00;;;;2072236;28;20218;-67
2021/08/21 04:53:04;;;;;;;3.30;3.00;;;;;21.90;100729.00;;;;2072234;28;20203;-68
2021/08/21 04:54:05;;;;;;;4.70;3.00;;;;;21.90;100726.00;;;;2071999;28;20570;-67
2021/08/21 04:55:05;;;;;;;3.83;3.17;;;;;22.00;100718.00;;;;2072206;28;20272;-68
2021/08/21 04:56:06;;;;;;;3.67;3.13;;;;;22.00;100720.00;;;;2072086;28;20210;-68
2021/08/21 04:57:06;;;;;;;3.40;3.10;;;;;22.00;100722.00;;;;2072172;28;20244;-68
2021/08/21 04:58:06;;;;;;;3.23;2.97;;;;;21.90;100728.00;;;;2072127;28;20219;-68
2021/08/21 04:59:07;;;;;;;3.50;3.13;;;;;21.90;100730.00;;;;2071978;28;20210;-68